sensor_id;sensor_type;location;lat;lon;timestamp;P1;durP1;ratioP1;P2;durP2;ratioP2
56718;SDS011;42597;40.636;0.278;2023-04-27T00:00:51;14.32;;;7.70;;
56718;SDS011;42597;40.636;0.278;2023-04-27T00:03:16;13.73;;;9.65;;
56718;SDS011;42597;40.636;0.278;2023-04-27T00:05:42;19.20;;;9.93;;
56718;SDS011;42597;40.636;0.278;2023-04-27T00:08:08;14.25;;;9.48;;
56718;SDS011;42597;40.636;0.278;2023-04-27T00:10:34;14.18;;;9.02;;
56718;SDS011;42597;40.636;0.278;2023-04-27T00:13:00;15.73;;;6.88;;
56718;SDS011;42597;40.636;0.278;2023-04-27T00:15:26;16.35;;;8.43;;
56718;SDS011;42597;40.636;0.278;2023-04-27T00:17:53;14.93;;;8.55;;
56718;SDS011;42597;40.636;0.278;2023-04-27T00:20:19;14.82;;;9.07;;
56718;SDS011;42597;40.636;0.278;2023-04-27T00:22:44;12.95;;;5.32;;
56718;SDS011;42597;40.636;0.278;2023-04-27T00:25:11;11.68;;;7.57;;
56718;SDS011;42597;40.636;0.278;2023-04-27T00:27:36;8.00;;;4.90;;
56718;SDS011;42597;40.636;0.278;2023-04-27T00:30:02;17.30;;;7.18;;
56718;SDS011;42597;40.636;0.278;2023-04-27T00:32:29;14.50;;;7.03;;
56718;SDS011;42597;40.636;0.278;2023-04-27T00:34:55;12.80;;;7.32;;
56718;SDS011;42597;40.636;0.278;2023-04-27T00:37:20;16.25;;;8.63;;
56718;SDS011;42597;40.636;0.278;2023-04-27T00:39:46;11.10;;;5.88;;
56718;SDS011;42597;40.636;0.278;2023-04-27T00:42:12;8.73;;;6.18;;
56718;SDS011;42597;40.636;0.278;2023-04-27T00:47:07;10.75;;;4.85;;
56718;SDS011;42597;40.636;0.278;2023-04-27T00:49:35;9.70;;;5.07;;
56718;SDS011;42597;40.636;0.278;2023-04-27T00:52:01;9.88;;;5.10;;
56718;SDS011;42597;40.636;0.278;2023-04-27T00:54:26;9.00;;;4.80;;
56718;SDS011;42597;40.636;0.278;2023-04-27T00:56:53;10.13;;;4.20;;
56718;SDS011;42597;40.636;0.278;2023-04-27T00:59:18;9.65;;;5.78;;
56718;SDS011;42597;40.636;0.278;2023-04-27T01:01:45;11.57;;;5.32;;
56718;SDS011;42597;40.636;0.278;2023-04-27T01:04:11;8.88;;;5.93;;
56718;SDS011;42597;40.636;0.278;2023-04-27T01:06:36;12.50;;;6.55;;
56718;SDS011;42597;40.636;0.278;2023-04-27T01:09:03;7.20;;;4.57;;
56718;SDS011;42597;40.636;0.278;2023-04-27T01:11:29;12.63;;;6.85;;
56718;SDS011;42597;40.636;0.278;2023-04-27T01:13:55;15.32;;;6.93;;
56718;SDS011;42597;40.636;0.278;2023-04-27T01:16:21;9.35;;;4.53;;
56718;SDS011;42597;40.636;0.278;2023-04-27T01:18:46;8.57;;;4.68;;
56718;SDS011;42597;40.636;0.278;2023-04-27T01:21:12;11.57;;;5.15;;
56718;SDS011;42597;40.636;0.278;2023-04-27T01:23:38;9.15;;;5.03;;
56718;SDS011;42597;40.636;0.278;2023-04-27T01:26:03;11.55;;;4.95;;
56718;SDS011;42597;40.636;0.278;2023-04-27T01:28:29;5.82;;;4.30;;
56718;SDS011;42597;40.636;0.278;2023-04-27T01:30:55;8.70;;;4.57;;
56718;SDS011;42597;40.636;0.278;2023-04-27T01:33:20;8.43;;;4.30;;
56718;SDS011;42597;40.636;0.278;2023-04-27T01:35:46;7.50;;;3.85;;
56718;SDS011;42597;40.636;0.278;2023-04-27T01:38:12;8.95;;;4.65;;
56718;SDS011;42597;40.636;0.278;2023-04-27T01:40:37;8.98;;;4.43;;
56718;SDS011;42597;40.636;0.278;2023-04-27T01:43:03;6.45;;;3.50;;
56718;SDS011;42597;40.636;0.278;2023-04-27T01:45:29;6.03;;;3.33;;
56718;SDS011;42597;40.636;0.278;2023-04-27T01:47:54;7.97;;;3.97;;
56718;SDS011;42597;40.636;0.278;2023-04-27T01:50:20;4.93;;;2.72;;
56718;SDS011;42597;40.636;0.278;2023-04-27T01:52:46;8.20;;;3.22;;
56718;SDS011;42597;40.636;0.278;2023-04-27T01:55:11;5.30;;;3.13;;
56718;SDS011;42597;40.636;0.278;2023-04-27T01:57:37;5.20;;;3.00;;
56718;SDS011;42597;40.636;0.278;2023-04-27T02:00:03;5.25;;;2.88;;
56718;SDS011;42597;40.636;0.278;2023-04-27T02:02:29;5.15;;;3.15;;
56718;SDS011;42597;40.636;0.278;2023-04-27T02:04:55;7.07;;;2.83;;
56718;SDS011;42597;40.636;0.278;2023-04-27T02:07:21;4.82;;;3.10;;
56718;SDS011;42597;40.636;0.278;2023-04-27T02:09:47;4.50;;;2.38;;
56718;SDS011;42597;40.636;0.278;2023-04-27T02:12:12;4.40;;;2.67;;
56718;SDS011;42597;40.636;0.278;2023-04-27T02:14:38;5.80;;;2.95;;
56718;SDS011;42597;40.636;0.278;2023-04-27T02:17:04;4.28;;;2.42;;
56718;SDS011;42597;40.636;0.278;2023-04-27T02:19:30;5.43;;;2.70;;
56718;SDS011;42597;40.636;0.278;2023-04-27T02:21:56;5.10;;;2.67;;
56718;SDS011;42597;40.636;0.278;2023-04-27T02:24:22;5.78;;;2.40;;
56718;SDS011;42597;40.636;0.278;2023-04-27T02:26:48;8.32;;;3.08;;
56718;SDS011;42597;40.636;0.278;2023-04-27T02:29:13;4.18;;;2.10;;
56718;SDS011;42597;40.636;0.278;2023-04-27T02:31:39;4.10;;;2.45;;
56718;SDS011;42597;40.636;0.278;2023-04-27T02:34:05;4.00;;;2.22;;
56718;SDS011;42597;40.636;0.278;2023-04-27T02:36:30;4.30;;;2.47;;
56718;SDS011;42597;40.636;0.278;2023-04-27T02:38:56;4.07;;;2.58;;
56718;SDS011;42597;40.636;0.278;2023-04-27T02:41:22;6.30;;;3.17;;
56718;SDS011;42597;40.636;0.278;2023-04-27T02:43:50;7.95;;;2.53;;
56718;SDS011;42597;40.636;0.278;2023-04-27T02:46:15;5.22;;;2.75;;
56718;SDS011;42597;40.636;0.278;2023-04-27T02:48:41;5.75;;;2.75;;
56718;SDS011;42597;40.636;0.278;2023-04-27T02:51:06;4.50;;;2.70;;
56718;SDS011;42597;40.636;0.278;2023-04-27T02:53:32;4.60;;;2.85;;
56718;SDS011;42597;40.636;0.278;2023-04-27T02:55:58;6.50;;;2.80;;
56718;SDS011;42597;40.636;0.278;2023-04-27T02:58:24;4.95;;;2.58;;
56718;SDS011;42597;40.636;0.278;2023-04-27T03:00:56;5.00;;;3.05;;
56718;SDS011;42597;40.636;0.278;2023-04-27T03:03:22;5.07;;;2.60;;
56718;SDS011;42597;40.636;0.278;2023-04-27T03:05:48;3.67;;;2.13;;
56718;SDS011;42597;40.636;0.278;2023-04-27T03:08:14;5.32;;;2.80;;
56718;SDS011;42597;40.636;0.278;2023-04-27T03:10:40;5.28;;;2.70;;
56718;SDS011;42597;40.636;0.278;2023-04-27T03:13:06;6.03;;;2.85;;
56718;SDS011;42597;40.636;0.278;2023-04-27T03:15:31;4.30;;;2.60;;
56718;SDS011;42597;40.636;0.278;2023-04-27T03:17:57;4.68;;;2.80;;
56718;SDS011;42597;40.636;0.278;2023-04-27T03:20:23;4.70;;;2.90;;
56718;SDS011;42597;40.636;0.278;2023-04-27T03:22:49;5.30;;;2.53;;
56718;SDS011;42597;40.636;0.278;2023-04-27T03:25:14;4.72;;;3.25;;
56718;SDS011;42597;40.636;0.278;2023-04-27T03:27:41;5.38;;;3.03;;
56718;SDS011;42597;40.636;0.278;2023-04-27T03:30:07;6.30;;;2.47;;
56718;SDS011;42597;40.636;0.278;2023-04-27T03:32:34;6.00;;;2.60;;
56718;SDS011;42597;40.636;0.278;2023-04-27T03:34:59;5.82;;;2.65;;
56718;SDS011;42597;40.636;0.278;2023-04-27T03:37:27;4.07;;;2.40;;
56718;SDS011;42597;40.636;0.278;2023-04-27T03:39:52;8.02;;;2.85;;
56718;SDS011;42597;40.636;0.278;2023-04-27T03:42:18;3.45;;;2.10;;
56718;SDS011;42597;40.636;0.278;2023-04-27T03:44:44;5.78;;;2.83;;
56718;SDS011;42597;40.636;0.278;2023-04-27T03:47:09;5.07;;;2.60;;
56718;SDS011;42597;40.636;0.278;2023-04-27T03:49:35;6.43;;;2.75;;
56718;SDS011;42597;40.636;0.278;2023-04-27T03:52:01;4.50;;;2.40;;
56718;SDS011;42597;40.636;0.278;2023-04-27T03:54:27;4.38;;;2.50;;
56718;SDS011;42597;40.636;0.278;2023-04-27T03:56:55;5.55;;;2.80;;
56718;SDS011;42597;40.636;0.278;2023-04-27T03:59:20;5.40;;;2.50;;
56718;SDS011;42597;40.636;0.278;2023-04-27T04:01:46;6.80;;;3.30;;
56718;SDS011;42597;40.636;0.278;2023-04-27T04:04:12;5.95;;;2.45;;
56718;SDS011;42597;40.636;0.278;2023-04-27T04:06:37;4.13;;;2.75;;
56718;SDS011;42597;40.636;0.278;2023-04-27T04:09:03;4.78;;;2.85;;
56718;SDS011;42597;40.636;0.278;2023-04-27T04:11:29;5.90;;;2.95;;
56718;SDS011;42597;40.636;0.278;2023-04-27T04:13:55;3.97;;;2.40;;
56718;SDS011;42597;40.636;0.278;2023-04-27T04:16:20;6.43;;;3.45;;
56718;SDS011;42597;40.636;0.278;2023-04-27T04:18:46;4.57;;;2.55;;
56718;SDS011;42597;40.636;0.278;2023-04-27T04:21:12;4.75;;;2.90;;
56718;SDS011;42597;40.636;0.278;2023-04-27T04:23:38;7.47;;;2.75;;
56718;SDS011;42597;40.636;0.278;2023-04-27T04:26:06;6.00;;;3.35;;
56718;SDS011;42597;40.636;0.278;2023-04-27T04:28:33;7.60;;;3.08;;
56718;SDS011;42597;40.636;0.278;2023-04-27T04:31:01;8.00;;;3.35;;
56718;SDS011;42597;40.636;0.278;2023-04-27T04:33:27;6.53;;;2.83;;
56718;SDS011;42597;40.636;0.278;2023-04-27T04:35:53;4.68;;;2.58;;
56718;SDS011;42597;40.636;0.278;2023-04-27T04:38:18;4.20;;;2.67;;
56718;SDS011;42597;40.636;0.278;2023-04-27T04:40:45;5.35;;;2.60;;
56718;SDS011;42597;40.636;0.278;2023-04-27T04:43:10;5.43;;;2.70;;
56718;SDS011;42597;40.636;0.278;2023-04-27T04:45:37;5.55;;;3.00;;
56718;SDS011;42597;40.636;0.278;2023-04-27T04:48:03;4.85;;;2.47;;
56718;SDS011;42597;40.636;0.278;2023-04-27T04:50:28;4.75;;;2.75;;
56718;SDS011;42597;40.636;0.278;2023-04-27T04:52:54;4.32;;;2.55;;
56718;SDS011;42597;40.636;0.278;2023-04-27T04:55:20;4.22;;;2.55;;
56718;SDS011;42597;40.636;0.278;2023-04-27T04:57:46;8.18;;;2.30;;
56718;SDS011;42597;40.636;0.278;2023-04-27T05:00:12;10.45;;;2.45;;
56718;SDS011;42597;40.636;0.278;2023-04-27T05:02:38;4.45;;;2.13;;
56718;SDS011;42597;40.636;0.278;2023-04-27T05:05:05;4.40;;;2.53;;
56718;SDS011;42597;40.636;0.278;2023-04-27T05:07:32;5.07;;;2.38;;
56718;SDS011;42597;40.636;0.278;2023-04-27T05:09:58;4.03;;;2.53;;
56718;SDS011;42597;40.636;0.278;2023-04-27T05:12:25;3.95;;;2.40;;
56718;SDS011;42597;40.636;0.278;2023-04-27T05:14:50;3.72;;;2.55;;
56718;SDS011;42597;40.636;0.278;2023-04-27T05:17:17;6.15;;;2.85;;
56718;SDS011;42597;40.636;0.278;2023-04-27T05:19:43;8.38;;;3.17;;
56718;SDS011;42597;40.636;0.278;2023-04-27T05:22:09;5.50;;;2.92;;
56718;SDS011;42597;40.636;0.278;2023-04-27T05:24:35;10.95;;;2.92;;
56718;SDS011;42597;40.636;0.278;2023-04-27T05:27:00;5.40;;;2.67;;
56718;SDS011;42597;40.636;0.278;2023-04-27T05:29:26;5.25;;;2.83;;
56718;SDS011;42597;40.636;0.278;2023-04-27T05:31:52;4.25;;;2.25;;
56718;SDS011;42597;40.636;0.278;2023-04-27T05:34:18;4.45;;;2.58;;
56718;SDS011;42597;40.636;0.278;2023-04-27T05:36:44;6.40;;;2.67;;
56718;SDS011;42597;40.636;0.278;2023-04-27T05:39:11;5.00;;;2.50;;
56718;SDS011;42597;40.636;0.278;2023-04-27T05:41:37;4.47;;;2.72;;
56718;SDS011;42597;40.636;0.278;2023-04-27T05:44:04;7.32;;;3.70;;
56718;SDS011;42597;40.636;0.278;2023-04-27T05:46:30;4.90;;;2.78;;
56718;SDS011;42597;40.636;0.278;2023-04-27T05:48:57;5.07;;;2.35;;
56718;SDS011;42597;40.636;0.278;2023-04-27T05:51:23;3.47;;;1.90;;
56718;SDS011;42597;40.636;0.278;2023-04-27T05:53:49;6.07;;;2.90;;
56718;SDS011;42597;40.636;0.278;2023-04-27T05:56:14;5.68;;;2.85;;
56718;SDS011;42597;40.636;0.278;2023-04-27T05:58:40;3.70;;;2.63;;
56718;SDS011;42597;40.636;0.278;2023-04-27T06:01:06;5.63;;;2.42;;
56718;SDS011;42597;40.636;0.278;2023-04-27T06:03:32;7.45;;;2.50;;
56718;SDS011;42597;40.636;0.278;2023-04-27T06:05:58;5.88;;;3.53;;
56718;SDS011;42597;40.636;0.278;2023-04-27T06:08:25;4.63;;;2.53;;
56718;SDS011;42597;40.636;0.278;2023-04-27T06:10:51;6.75;;;3.10;;
56718;SDS011;42597;40.636;0.278;2023-04-27T06:13:18;4.80;;;2.67;;
56718;SDS011;42597;40.636;0.278;2023-04-27T06:15:44;5.28;;;2.58;;
56718;SDS011;42597;40.636;0.278;2023-04-27T06:18:10;5.85;;;2.40;;
56718;SDS011;42597;40.636;0.278;2023-04-27T06:20:37;12.43;;;3.03;;
56718;SDS011;42597;40.636;0.278;2023-04-27T06:23:03;5.35;;;2.72;;
56718;SDS011;42597;40.636;0.278;2023-04-27T06:25:29;5.10;;;3.05;;
56718;SDS011;42597;40.636;0.278;2023-04-27T06:27:55;8.90;;;4.90;;
56718;SDS011;42597;40.636;0.278;2023-04-27T06:30:22;4.57;;;2.63;;
56718;SDS011;42597;40.636;0.278;2023-04-27T06:32:48;9.57;;;3.60;;
56718;SDS011;42597;40.636;0.278;2023-04-27T06:35:14;9.60;;;3.50;;
56718;SDS011;42597;40.636;0.278;2023-04-27T06:37:40;5.88;;;3.20;;
56718;SDS011;42597;40.636;0.278;2023-04-27T06:40:06;6.57;;;3.33;;
56718;SDS011;42597;40.636;0.278;2023-04-27T06:42:33;6.50;;;3.05;;
56718;SDS011;42597;40.636;0.278;2023-04-27T06:44:59;6.90;;;3.42;;
56718;SDS011;42597;40.636;0.278;2023-04-27T06:47:25;10.40;;;4.07;;
56718;SDS011;42597;40.636;0.278;2023-04-27T06:49:51;6.78;;;2.70;;
56718;SDS011;42597;40.636;0.278;2023-04-27T06:52:17;8.85;;;3.97;;
56718;SDS011;42597;40.636;0.278;2023-04-27T06:54:42;9.90;;;4.55;;
56718;SDS011;42597;40.636;0.278;2023-04-27T06:57:08;7.50;;;3.42;;
56718;SDS011;42597;40.636;0.278;2023-04-27T06:59:34;6.70;;;3.58;;
56718;SDS011;42597;40.636;0.278;2023-04-27T07:02:00;9.13;;;6.30;;
56718;SDS011;42597;40.636;0.278;2023-04-27T07:04:26;10.65;;;6.65;;
56718;SDS011;42597;40.636;0.278;2023-04-27T07:06:52;6.28;;;3.97;;
56718;SDS011;42597;40.636;0.278;2023-04-27T07:09:18;15.63;;;4.65;;
56718;SDS011;42597;40.636;0.278;2023-04-27T07:11:43;10.48;;;3.75;;
56718;SDS011;42597;40.636;0.278;2023-04-27T07:14:09;13.75;;;6.25;;
56718;SDS011;42597;40.636;0.278;2023-04-27T07:16:35;13.02;;;7.10;;
56718;SDS011;42597;40.636;0.278;2023-04-27T07:19:00;13.20;;;7.43;;
56718;SDS011;42597;40.636;0.278;2023-04-27T07:21:26;7.95;;;4.90;;
56718;SDS011;42597;40.636;0.278;2023-04-27T07:23:53;10.52;;;4.47;;
56718;SDS011;42597;40.636;0.278;2023-04-27T07:26:19;7.43;;;3.88;;
56718;SDS011;42597;40.636;0.278;2023-04-27T07:31:14;7.57;;;4.63;;
56718;SDS011;42597;40.636;0.278;2023-04-27T07:33:40;9.88;;;6.70;;
56718;SDS011;42597;40.636;0.278;2023-04-27T07:36:06;9.43;;;6.47;;
56718;SDS011;42597;40.636;0.278;2023-04-27T07:38:32;7.70;;;5.35;;
56718;SDS011;42597;40.636;0.278;2023-04-27T07:40:59;7.40;;;5.85;;
56718;SDS011;42597;40.636;0.278;2023-04-27T07:43:32;10.55;;;7.50;;
56718;SDS011;42597;40.636;0.278;2023-04-27T07:45:58;9.77;;;7.82;;
56718;SDS011;42597;40.636;0.278;2023-04-27T07:48:24;17.35;;;8.05;;
56718;SDS011;42597;40.636;0.278;2023-04-27T07:50:50;11.63;;;6.50;;
56718;SDS011;42597;40.636;0.278;2023-04-27T07:53:16;10.38;;;7.97;;
56718;SDS011;42597;40.636;0.278;2023-04-27T07:55:41;12.80;;;8.25;;
56718;SDS011;42597;40.636;0.278;2023-04-27T07:58:10;11.65;;;8.35;;
56718;SDS011;42597;40.636;0.278;2023-04-27T08:00:36;13.15;;;10.40;;
56718;SDS011;42597;40.636;0.278;2023-04-27T08:03:02;15.82;;;11.93;;
56718;SDS011;42597;40.636;0.278;2023-04-27T08:05:28;15.07;;;12.38;;
56718;SDS011;42597;40.636;0.278;2023-04-27T08:07:54;14.38;;;10.15;;
56718;SDS011;42597;40.636;0.278;2023-04-27T08:10:20;19.50;;;12.20;;
56718;SDS011;42597;40.636;0.278;2023-04-27T08:12:47;14.45;;;12.52;;
56718;SDS011;42597;40.636;0.278;2023-04-27T08:15:13;16.67;;;13.45;;
56718;SDS011;42597;40.636;0.278;2023-04-27T08:17:38;15.85;;;11.38;;
56718;SDS011;42597;40.636;0.278;2023-04-27T08:20:05;23.23;;;12.52;;
56718;SDS011;42597;40.636;0.278;2023-04-27T08:22:35;14.38;;;10.90;;
56718;SDS011;42597;40.636;0.278;2023-04-27T08:25:02;18.30;;;11.25;;
56718;SDS011;42597;40.636;0.278;2023-04-27T08:27:29;16.55;;;11.68;;
56718;SDS011;42597;40.636;0.278;2023-04-27T08:29:55;16.02;;;10.73;;
56718;SDS011;42597;40.636;0.278;2023-04-27T08:32:21;13.77;;;10.23;;
56718;SDS011;42597;40.636;0.278;2023-04-27T08:34:46;13.57;;;9.50;;
56718;SDS011;42597;40.636;0.278;2023-04-27T08:37:12;14.68;;;9.57;;
56718;SDS011;42597;40.636;0.278;2023-04-27T08:39:38;13.57;;;9.88;;
56718;SDS011;42597;40.636;0.278;2023-04-27T08:42:11;15.52;;;10.45;;
56718;SDS011;42597;40.636;0.278;2023-04-27T08:44:41;9.32;;;8.02;;
56718;SDS011;42597;40.636;0.278;2023-04-27T08:47:08;13.88;;;10.68;;
56718;SDS011;42597;40.636;0.278;2023-04-27T08:49:35;14.25;;;9.65;;
56718;SDS011;42597;40.636;0.278;2023-04-27T08:52:15;17.52;;;9.38;;
56718;SDS011;42597;40.636;0.278;2023-04-27T08:54:41;7.88;;;5.88;;
56718;SDS011;42597;40.636;0.278;2023-04-27T08:57:11;11.38;;;7.00;;
56718;SDS011;42597;40.636;0.278;2023-04-27T08:59:39;8.15;;;5.80;;
56718;SDS011;42597;40.636;0.278;2023-04-27T09:02:05;10.10;;;8.63;;
56718;SDS011;42597;40.636;0.278;2023-04-27T09:04:37;15.07;;;10.20;;
56718;SDS011;42597;40.636;0.278;2023-04-27T09:07:13;12.70;;;9.73;;
56718;SDS011;42597;40.636;0.278;2023-04-27T09:09:41;12.57;;;9.73;;
56718;SDS011;42597;40.636;0.278;2023-04-27T09:17:29;10.20;;;7.50;;
56718;SDS011;42597;40.636;0.278;2023-04-27T09:20:29;13.23;;;7.85;;
56718;SDS011;42597;40.636;0.278;2023-04-27T09:22:51;10.25;;;6.18;;
56718;SDS011;42597;40.636;0.278;2023-04-27T09:27:51;14.88;;;7.80;;
56718;SDS011;42597;40.636;0.278;2023-04-27T09:30:18;11.10;;;7.75;;
56718;SDS011;42597;40.636;0.278;2023-04-27T09:35:30;12.57;;;8.10;;
56718;SDS011;42597;40.636;0.278;2023-04-27T09:37:57;12.38;;;8.70;;
56718;SDS011;42597;40.636;0.278;2023-04-27T09:40:24;10.88;;;7.70;;
56718;SDS011;42597;40.636;0.278;2023-04-27T09:42:54;12.38;;;8.48;;
56718;SDS011;42597;40.636;0.278;2023-04-27T09:45:22;12.18;;;8.13;;
56718;SDS011;42597;40.636;0.278;2023-04-27T09:47:48;12.50;;;7.22;;
56718;SDS011;42597;40.636;0.278;2023-04-27T09:50:14;9.18;;;7.63;;
56718;SDS011;42597;40.636;0.278;2023-04-27T09:52:40;10.00;;;8.63;;
56718;SDS011;42597;40.636;0.278;2023-04-27T09:55:08;11.77;;;9.48;;
56718;SDS011;42597;40.636;0.278;2023-04-27T09:57:42;10.60;;;8.50;;
56718;SDS011;42597;40.636;0.278;2023-04-27T10:07:57;12.80;;;8.75;;
56718;SDS011;42597;40.636;0.278;2023-04-27T10:10:22;12.50;;;7.78;;
56718;SDS011;42597;40.636;0.278;2023-04-27T10:12:55;11.35;;;8.55;;
56718;SDS011;42597;40.636;0.278;2023-04-27T10:15:26;10.38;;;8.23;;
56718;SDS011;42597;40.636;0.278;2023-04-27T10:17:53;9.43;;;8.10;;
56718;SDS011;42597;40.636;0.278;2023-04-27T10:20:34;12.05;;;10.18;;
56718;SDS011;42597;40.636;0.278;2023-04-27T10:23:01;10.82;;;6.32;;
56718;SDS011;42597;40.636;0.278;2023-04-27T10:25:40;12.23;;;9.45;;
56718;SDS011;42597;40.636;0.278;2023-04-27T10:28:06;9.43;;;6.38;;
56718;SDS011;42597;40.636;0.278;2023-04-27T10:30:33;10.20;;;7.38;;
56718;SDS011;42597;40.636;0.278;2023-04-27T10:35:35;10.85;;;7.03;;
56718;SDS011;42597;40.636;0.278;2023-04-27T10:38:09;10.15;;;6.78;;
56718;SDS011;42597;40.636;0.278;2023-04-27T10:40:40;12.45;;;8.45;;
56718;SDS011;42597;40.636;0.278;2023-04-27T10:43:33;10.68;;;8.75;;
56718;SDS011;42597;40.636;0.278;2023-04-27T10:46:09;12.00;;;7.22;;
56718;SDS011;42597;40.636;0.278;2023-04-27T10:48:37;14.32;;;8.73;;
56718;SDS011;42597;40.636;0.278;2023-04-27T10:51:04;12.32;;;7.95;;
56718;SDS011;42597;40.636;0.278;2023-04-27T10:53:37;12.60;;;7.40;;
56718;SDS011;42597;40.636;0.278;2023-04-27T10:56:03;16.27;;;7.13;;
56718;SDS011;42597;40.636;0.278;2023-04-27T10:58:32;21.95;;;8.73;;
56718;SDS011;42597;40.636;0.278;2023-04-27T11:00:59;12.23;;;8.15;;
56718;SDS011;42597;40.636;0.278;2023-04-27T11:03:25;15.80;;;8.90;;
56718;SDS011;42597;40.636;0.278;2023-04-27T11:06:01;8.45;;;7.28;;
56718;SDS011;42597;40.636;0.278;2023-04-27T11:08:28;12.43;;;9.30;;
56718;SDS011;42597;40.636;0.278;2023-04-27T11:11:00;16.65;;;9.52;;
56718;SDS011;42597;40.636;0.278;2023-04-27T11:13:26;11.25;;;9.48;;
56718;SDS011;42597;40.636;0.278;2023-04-27T11:15:53;11.40;;;8.90;;
56718;SDS011;42597;40.636;0.278;2023-04-27T11:18:28;16.30;;;8.60;;
56718;SDS011;42597;40.636;0.278;2023-04-27T11:21:08;17.48;;;7.50;;
56718;SDS011;42597;40.636;0.278;2023-04-27T11:23:36;13.68;;;8.43;;
56718;SDS011;42597;40.636;0.278;2023-04-27T11:26:13;14.40;;;8.20;;
56718;SDS011;42597;40.636;0.278;2023-04-27T11:28:39;13.10;;;8.70;;
56718;SDS011;42597;40.636;0.278;2023-04-27T11:31:06;12.85;;;8.32;;
56718;SDS011;42597;40.636;0.278;2023-04-27T11:33:32;9.95;;;8.38;;
56718;SDS011;42597;40.636;0.278;2023-04-27T11:35:58;9.40;;;6.95;;
56718;SDS011;42597;40.636;0.278;2023-04-27T11:38:25;11.45;;;8.10;;
56718;SDS011;42597;40.636;0.278;2023-04-27T11:41:04;14.63;;;7.97;;
56718;SDS011;42597;40.636;0.278;2023-04-27T11:43:31;10.10;;;7.65;;
56718;SDS011;42597;40.636;0.278;2023-04-27T11:45:57;11.88;;;9.45;;
56718;SDS011;42597;40.636;0.278;2023-04-27T11:48:27;11.32;;;7.00;;
56718;SDS011;42597;40.636;0.278;2023-04-27T11:50:55;13.52;;;8.10;;
56718;SDS011;42597;40.636;0.278;2023-04-27T11:53:30;16.20;;;8.57;;
56718;SDS011;42597;40.636;0.278;2023-04-27T11:56:01;12.60;;;7.45;;
56718;SDS011;42597;40.636;0.278;2023-04-27T11:58:32;14.07;;;8.32;;
56718;SDS011;42597;40.636;0.278;2023-04-27T12:00:59;8.07;;;6.80;;
56718;SDS011;42597;40.636;0.278;2023-04-27T12:03:26;14.98;;;7.68;;
56718;SDS011;42597;40.636;0.278;2023-04-27T12:05:52;11.32;;;6.45;;
56718;SDS011;42597;40.636;0.278;2023-04-27T12:08:19;11.57;;;6.70;;
56718;SDS011;42597;40.636;0.278;2023-04-27T12:10:45;13.57;;;7.03;;
56718;SDS011;42597;40.636;0.278;2023-04-27T12:13:11;12.57;;;6.20;;
56718;SDS011;42597;40.636;0.278;2023-04-27T12:15:38;13.60;;;7.85;;
56718;SDS011;42597;40.636;0.278;2023-04-27T12:18:04;10.88;;;7.65;;
56718;SDS011;42597;40.636;0.278;2023-04-27T12:20:31;12.57;;;6.90;;
56718;SDS011;42597;40.636;0.278;2023-04-27T12:22:58;17.85;;;6.90;;
56718;SDS011;42597;40.636;0.278;2023-04-27T12:25:23;9.57;;;6.40;;
56718;SDS011;42597;40.636;0.278;2023-04-27T12:27:49;8.73;;;6.50;;
56718;SDS011;42597;40.636;0.278;2023-04-27T12:30:16;11.40;;;7.10;;
56718;SDS011;42597;40.636;0.278;2023-04-27T12:32:42;13.30;;;7.88;;
56718;SDS011;42597;40.636;0.278;2023-04-27T12:35:08;11.27;;;8.15;;
56718;SDS011;42597;40.636;0.278;2023-04-27T12:37:37;9.73;;;7.03;;
56718;SDS011;42597;40.636;0.278;2023-04-27T12:40:03;9.73;;;6.93;;
56718;SDS011;42597;40.636;0.278;2023-04-27T12:42:30;11.65;;;7.00;;
56718;SDS011;42597;40.636;0.278;2023-04-27T12:44:56;13.48;;;6.40;;
56718;SDS011;42597;40.636;0.278;2023-04-27T12:47:22;7.85;;;6.18;;
56718;SDS011;42597;40.636;0.278;2023-04-27T12:49:48;9.75;;;6.53;;
56718;SDS011;42597;40.636;0.278;2023-04-27T12:52:15;9.48;;;6.88;;
56718;SDS011;42597;40.636;0.278;2023-04-27T12:54:40;10.18;;;6.70;;
56718;SDS011;42597;40.636;0.278;2023-04-27T12:57:06;10.10;;;7.22;;
56718;SDS011;42597;40.636;0.278;2023-04-27T12:59:32;23.10;;;6.75;;
56718;SDS011;42597;40.636;0.278;2023-04-27T13:01:59;10.88;;;7.00;;
56718;SDS011;42597;40.636;0.278;2023-04-27T13:04:26;11.02;;;6.93;;
56718;SDS011;42597;40.636;0.278;2023-04-27T13:06:53;10.15;;;6.53;;
56718;SDS011;42597;40.636;0.278;2023-04-27T13:09:19;10.75;;;6.95;;
56718;SDS011;42597;40.636;0.278;2023-04-27T13:11:45;7.95;;;5.95;;
56718;SDS011;42597;40.636;0.278;2023-04-27T13:14:11;14.23;;;8.02;;
56718;SDS011;42597;40.636;0.278;2023-04-27T13:16:40;12.40;;;7.55;;
56718;SDS011;42597;40.636;0.278;2023-04-27T13:19:06;12.38;;;6.50;;
56718;SDS011;42597;40.636;0.278;2023-04-27T13:21:32;11.02;;;6.88;;
56718;SDS011;42597;40.636;0.278;2023-04-27T13:23:58;9.10;;;6.68;;
56718;SDS011;42597;40.636;0.278;2023-04-27T13:26:24;9.77;;;6.15;;
56718;SDS011;42597;40.636;0.278;2023-04-27T13:28:49;10.02;;;6.55;;
56718;SDS011;42597;40.636;0.278;2023-04-27T13:31:15;14.73;;;7.00;;
56718;SDS011;42597;40.636;0.278;2023-04-27T13:33:41;8.93;;;7.35;;
56718;SDS011;42597;40.636;0.278;2023-04-27T13:36:08;9.77;;;6.45;;
56718;SDS011;42597;40.636;0.278;2023-04-27T13:38:35;11.13;;;6.68;;
56718;SDS011;42597;40.636;0.278;2023-04-27T13:41:01;8.98;;;6.50;;
56718;SDS011;42597;40.636;0.278;2023-04-27T13:43:27;7.95;;;5.25;;
56718;SDS011;42597;40.636;0.278;2023-04-27T13:45:53;8.95;;;6.00;;
56718;SDS011;42597;40.636;0.278;2023-04-27T13:48:20;10.95;;;6.15;;
56718;SDS011;42597;40.636;0.278;2023-04-27T13:50:46;9.35;;;6.07;;
56718;SDS011;42597;40.636;0.278;2023-04-27T13:53:12;10.75;;;6.00;;
56718;SDS011;42597;40.636;0.278;2023-04-27T13:55:40;12.27;;;6.85;;
56718;SDS011;42597;40.636;0.278;2023-04-27T13:58:06;8.50;;;5.93;;
56718;SDS011;42597;40.636;0.278;2023-04-27T14:00:32;10.18;;;5.57;;
56718;SDS011;42597;40.636;0.278;2023-04-27T14:02:59;9.15;;;5.97;;
56718;SDS011;42597;40.636;0.278;2023-04-27T14:05:25;8.93;;;6.18;;
56718;SDS011;42597;40.636;0.278;2023-04-27T14:07:51;11.73;;;6.18;;
56718;SDS011;42597;40.636;0.278;2023-04-27T14:10:18;11.02;;;5.43;;
56718;SDS011;42597;40.636;0.278;2023-04-27T14:12:44;14.73;;;7.25;;
56718;SDS011;42597;40.636;0.278;2023-04-27T14:15:10;12.13;;;6.65;;
56718;SDS011;42597;40.636;0.278;2023-04-27T14:17:36;14.75;;;7.95;;
56718;SDS011;42597;40.636;0.278;2023-04-27T14:20:02;16.35;;;6.97;;
56718;SDS011;42597;40.636;0.278;2023-04-27T14:22:31;9.23;;;5.80;;
56718;SDS011;42597;40.636;0.278;2023-04-27T14:24:57;9.57;;;5.63;;
56718;SDS011;42597;40.636;0.278;2023-04-27T14:27:24;11.90;;;6.90;;
56718;SDS011;42597;40.636;0.278;2023-04-27T14:29:50;10.32;;;5.47;;
56718;SDS011;42597;40.636;0.278;2023-04-27T14:32:15;13.52;;;7.68;;
56718;SDS011;42597;40.636;0.278;2023-04-27T14:34:42;8.82;;;5.90;;
56718;SDS011;42597;40.636;0.278;2023-04-27T14:37:08;12.77;;;6.25;;
56718;SDS011;42597;40.636;0.278;2023-04-27T14:39:33;8.90;;;5.47;;
56718;SDS011;42597;40.636;0.278;2023-04-27T14:42:00;12.80;;;6.15;;
56718;SDS011;42597;40.636;0.278;2023-04-27T14:44:26;11.68;;;6.07;;
56718;SDS011;42597;40.636;0.278;2023-04-27T14:46:52;10.88;;;5.53;;
56718;SDS011;42597;40.636;0.278;2023-04-27T14:49:18;8.32;;;5.50;;
56718;SDS011;42597;40.636;0.278;2023-04-27T14:51:45;6.90;;;4.95;;
56718;SDS011;42597;40.636;0.278;2023-04-27T14:54:10;9.48;;;5.45;;
56718;SDS011;42597;40.636;0.278;2023-04-27T14:56:37;16.33;;;7.55;;
56718;SDS011;42597;40.636;0.278;2023-04-27T14:59:03;11.10;;;6.45;;
56718;SDS011;42597;40.636;0.278;2023-04-27T15:01:29;10.68;;;4.70;;
56718;SDS011;42597;40.636;0.278;2023-04-27T15:03:56;9.30;;;5.95;;